sensor_id;sensor_type;location;lat;lon;timestamp;pressure;altitude;pressure_sealevel;temperature
24714;BMP280;12820;51.580;5.010;2022-10-28T00:02:28;101705.47;;;17.40
24714;BMP280;12820;51.580;5.010;2022-10-28T00:07:30;101700.56;;;17.34
24714;BMP280;12820;51.580;5.010;2022-10-28T00:12:36;101706.66;;;17.27
24714;BMP280;12820;51.580;5.010;2022-10-28T00:17:38;101706.88;;;17.21
24714;BMP280;12820;51.580;5.010;2022-10-28T00:22:41;101700.25;;;17.14
24714;BMP280;12820;51.580;5.010;2022-10-28T00:27:43;101708.91;;;17.07
24714;BMP280;12820;51.580;5.010;2022-10-28T00:32:45;101705.69;;;17.03
24714;BMP280;12820;51.580;5.010;2022-10-28T00:37:47;101699.00;;;16.99
24714;BMP280;12820;51.580;5.010;2022-10-28T00:42:49;101687.28;;;16.93
24714;BMP280;12820;51.580;5.010;2022-10-28T00:47:55;101681.47;;;16.88
24714;BMP280;12820;51.580;5.010;2022-10-28T00:53:05;101681.56;;;16.86
24714;BMP280;12820;51.580;5.010;2022-10-28T00:58:09;101679.13;;;16.81
24714;BMP280;12820;51.580;5.010;2022-10-28T01:03:11;101688.53;;;16.78
24714;BMP280;12820;51.580;5.010;2022-10-28T01:08:14;101681.81;;;16.75
24714;BMP280;12820;51.580;5.010;2022-10-28T01:24:11;101666.84;;;16.65
24714;BMP280;12820;51.580;5.010;2022-10-28T01:29:48;101655.97;;;16.62
24714;BMP280;12820;51.580;5.010;2022-10-28T01:35:04;101650.13;;;16.58
24714;BMP280;12820;51.580;5.010;2022-10-28T01:45:27;101646.94;;;16.51
24714;BMP280;12820;51.580;5.010;2022-10-28T01:50:36;101656.34;;;16.47
24714;BMP280;12820;51.580;5.010;2022-10-28T01:55:42;101646.28;;;16.44
24714;BMP280;12820;51.580;5.010;2022-10-28T02:00:47;101654.75;;;16.43
24714;BMP280;12820;51.580;5.010;2022-10-28T02:05:54;101654.75;;;16.43
24714;BMP280;12820;51.580;5.010;2022-10-28T02:21:38;101653.16;;;16.39
24714;BMP280;12820;51.580;5.010;2022-10-28T02:26:51;101653.19;;;16.38
24714;BMP280;12820;51.580;5.010;2022-10-28T02:31:58;101648.97;;;16.38
24714;BMP280;12820;51.580;5.010;2022-10-28T02:37:05;101654.91;;;16.37
24714;BMP280;12820;51.580;5.010;2022-10-28T02:42:20;101657.41;;;16.39
24714;BMP280;12820;51.580;5.010;2022-10-28T02:47:26;101644.75;;;16.37
24714;BMP280;12820;51.580;5.010;2022-10-28T02:52:31;101645.56;;;16.39
24714;BMP280;12820;51.580;5.010;2022-10-28T02:57:37;101642.16;;;16.40
24714;BMP280;12820;51.580;5.010;2022-10-28T03:02:41;101639.63;;;16.40
24714;BMP280;12820;51.580;5.010;2022-10-28T03:07:43;101644.69;;;16.40
24714;BMP280;12820;51.580;5.010;2022-10-28T03:12:45;101650.63;;;16.39
24714;BMP280;12820;51.580;5.010;2022-10-28T03:17:47;101642.22;;;16.37
24714;BMP280;12820;51.580;5.010;2022-10-28T03:22:49;101638.91;;;16.36
24714;BMP280;12820;51.580;5.010;2022-10-28T03:27:56;101641.44;;;16.36
24714;BMP280;12820;51.580;5.010;2022-10-28T03:32:58;101627.06;;;16.35
24714;BMP280;12820;51.580;5.010;2022-10-28T03:38:00;101622.88;;;16.34
24714;BMP280;12820;51.580;5.010;2022-10-28T03:43:02;101623.72;;;16.33
24714;BMP280;12820;51.580;5.010;2022-10-28T03:48:05;101633.88;;;16.33
24714;BMP280;12820;51.580;5.010;2022-10-28T03:53:07;101626.25;;;16.33
24714;BMP280;12820;51.580;5.010;2022-10-28T03:58:09;101636.41;;;16.33
24714;BMP280;12820;51.580;5.010;2022-10-28T04:03:11;101633.88;;;16.33
24714;BMP280;12820;51.580;5.010;2022-10-28T04:08:14;101633.09;;;16.31
24714;BMP280;12820;51.580;5.010;2022-10-28T04:13:17;101629.75;;;16.29
24714;BMP280;12820;51.580;5.010;2022-10-28T04:18:19;101631.47;;;16.28
24714;BMP280;12820;51.580;5.010;2022-10-28T04:23:21;101629.75;;;16.29
24714;BMP280;12820;51.580;5.010;2022-10-28T04:28:23;101631.47;;;16.28
24714;BMP280;12820;51.580;5.010;2022-10-28T04:33:25;101632.28;;;16.29
24714;BMP280;12820;51.580;5.010;2022-10-28T04:38:27;101634.81;;;16.29
24714;BMP280;12820;51.580;5.010;2022-10-28T04:43:29;101625.53;;;16.29
24714;BMP280;12820;51.580;5.010;2022-10-28T04:48:33;101628.03;;;16.31
24714;BMP280;12820;51.580;5.010;2022-10-28T04:53:38;101612.81;;;16.31
24714;BMP280;12820;51.580;5.010;2022-10-28T04:58:40;101612.75;;;16.32
24714;BMP280;12820;51.580;5.010;2022-10-28T05:03:42;101617.78;;;16.34
24714;BMP280;12820;51.580;5.010;2022-10-28T05:08:44;101615.25;;;16.34
24714;BMP280;12820;51.580;5.010;2022-10-28T05:13:46;101626.25;;;16.33
24714;BMP280;12820;51.580;5.010;2022-10-28T05:18:48;101638.94;;;16.33
24714;BMP280;12820;51.580;5.010;2022-10-28T05:23:50;101628.03;;;16.31
24714;BMP280;12820;51.580;5.010;2022-10-28T05:28:52;101622.94;;;16.31
24714;BMP280;12820;51.580;5.010;2022-10-28T05:33:54;101605.22;;;16.29
24714;BMP280;12820;51.580;5.010;2022-10-28T05:38:57;101612.00;;;16.29
24714;BMP280;12820;51.580;5.010;2022-10-28T05:43:59;101605.25;;;16.28
24714;BMP280;12820;51.580;5.010;2022-10-28T05:49:01;101602.78;;;16.26
24714;BMP280;12820;51.580;5.010;2022-10-28T05:54:03;101597.72;;;16.25
24714;BMP280;12820;51.580;5.010;2022-10-28T05:59:05;101611.28;;;16.24
24714;BMP280;12820;51.580;5.010;2022-10-28T06:04:07;101609.59;;;16.23
24714;BMP280;12820;51.580;5.010;2022-10-28T06:09:09;101613.84;;;16.22
24714;BMP280;12820;51.580;5.010;2022-10-28T06:14:12;101616.34;;;16.24
24714;BMP280;12820;51.580;5.010;2022-10-28T06:19:14;101617.94;;;16.28
24714;BMP280;12820;51.580;5.010;2022-10-28T06:24:16;101611.22;;;16.27
24714;BMP280;12820;51.580;5.010;2022-10-28T06:29:18;101596.81;;;16.27
24714;BMP280;12820;51.580;5.010;2022-10-28T06:34:21;101607.78;;;16.28
24714;BMP280;12820;51.580;5.010;2022-10-28T06:39:23;101613.69;;;16.28
24714;BMP280;12820;51.580;5.010;2022-10-28T06:44:25;101607.72;;;16.31
24714;BMP280;12820;51.580;5.010;2022-10-28T06:49:27;101604.25;;;16.35
24714;BMP280;12820;51.580;5.010;2022-10-28T06:54:29;101603.25;;;16.40
24714;BMP280;12820;51.580;5.010;2022-10-28T06:59:31;101600.59;;;16.44
24714;BMP280;12820;51.580;5.010;2022-10-28T07:04:33;101601.25;;;16.51
24714;BMP280;12820;51.580;5.010;2022-10-28T07:09:35;101606.97;;;16.58
24714;BMP280;12820;51.580;5.010;2022-10-28T07:14:40;101612.69;;;16.66
24714;BMP280;12820;51.580;5.010;2022-10-28T07:19:42;101633.59;;;16.75
24714;BMP280;12820;51.580;5.010;2022-10-28T07:24:44;101624.84;;;16.85
24714;BMP280;12820;51.580;5.010;2022-10-28T07:29:46;101628.81;;;16.96
24714;BMP280;12820;51.580;5.010;2022-10-28T07:34:48;101616.59;;;17.08
24714;BMP280;12820;51.580;5.010;2022-10-28T07:39:50;101632.28;;;17.22
24714;BMP280;12820;51.580;5.010;2022-10-28T07:44:52;101622.66;;;17.33
24714;BMP280;12820;51.580;5.010;2022-10-28T07:49:55;101618.09;;;17.43
24714;BMP280;12820;51.580;5.010;2022-10-28T07:54:57;101606.69;;;17.56
24714;BMP280;12820;51.580;5.010;2022-10-28T07:59:59;101613.88;;;17.69
24714;BMP280;12820;51.580;5.010;2022-10-28T08:05:01;101616.84;;;17.84
24714;BMP280;12820;51.580;5.010;2022-10-28T08:10:03;101641.91;;;17.96
24714;BMP280;12820;51.580;5.010;2022-10-28T08:15:06;101644.00;;;18.09
24714;BMP280;12820;51.580;5.010;2022-10-28T08:20:11;101637.59;;;18.23
24714;BMP280;12820;51.580;5.010;2022-10-28T08:25:13;101652.25;;;18.41
24714;BMP280;12820;51.580;5.010;2022-10-28T08:30:15;101642.31;;;18.59
24714;BMP280;12820;51.580;5.010;2022-10-28T08:35:17;101628.88;;;18.79
24714;BMP280;12820;51.580;5.010;2022-10-28T08:40:28;101641.78;;;18.97
24714;BMP280;12820;51.580;5.010;2022-10-28T08:46:00;101648.66;;;19.19
24714;BMP280;12820;51.580;5.010;2022-10-28T08:51:10;101635.28;;;19.35
24714;BMP280;12820;51.580;5.010;2022-10-28T08:56:32;101644.03;;;19.51
24714;BMP280;12820;51.580;5.010;2022-10-28T09:01:50;101640.06;;;19.66
24714;BMP280;12820;51.580;5.010;2022-10-28T09:06:58;101655.59;;;19.81
24714;BMP280;12820;51.580;5.010;2022-10-28T09:22:58;101662.78;;;20.14
24714;BMP280;12820;51.580;5.010;2022-10-28T09:28:05;101659.91;;;20.21
24714;BMP280;12820;51.580;5.010;2022-10-28T09:38:34;101660.88;;;20.40
24714;BMP280;12820;51.580;5.010;2022-10-28T09:43:51;101654.31;;;20.54
24714;BMP280;12820;51.580;5.010;2022-10-28T09:48:58;101668.09;;;20.69
24714;BMP280;12820;51.580;5.010;2022-10-28T09:54:00;101648.84;;;20.82
24714;BMP280;12820;51.580;5.010;2022-10-28T09:59:03;101637.75;;;21.01
24714;BMP280;12820;51.580;5.010;2022-10-28T10:04:19;101629.94;;;21.23
24714;BMP280;12820;51.580;5.010;2022-10-28T10:09:28;101635.72;;;21.45
24714;BMP280;12820;51.580;5.010;2022-10-28T10:14:47;101631.22;;;21.68
24714;BMP280;12820;51.580;5.010;2022-10-28T10:20:14;101626.72;;;21.90
24714;BMP280;12820;51.580;5.010;2022-10-28T10:30:29;101632.00;;;22.39
24714;BMP280;12820;51.580;5.010;2022-10-28T10:35:33;101637.50;;;22.64
24714;BMP280;12820;51.580;5.010;2022-10-28T10:40:47;101639.47;;;22.91
24714;BMP280;12820;51.580;5.010;2022-10-28T10:56:10;101632.09;;;23.64
24714;BMP280;12820;51.580;5.010;2022-10-28T11:01:18;101635.16;;;23.70
24714;BMP280;12820;51.580;5.010;2022-10-28T11:06:26;101639.72;;;23.80
24714;BMP280;12820;51.580;5.010;2022-10-28T11:16:56;101625.44;;;24.05
24714;BMP280;12820;51.580;5.010;2022-10-28T11:33:00;101624.88;;;24.58
24714;BMP280;12820;51.580;5.010;2022-10-28T11:43:52;101633.09;;;24.77
24714;BMP280;12820;51.580;5.010;2022-10-28T11:49:26;101637.13;;;24.68
24714;BMP280;12820;51.580;5.010;2022-10-28T11:54:54;101646.59;;;24.67
24714;BMP280;12820;51.580;5.010;2022-10-28T12:00:24;101646.41;;;24.70
24714;BMP280;12820;51.580;5.010;2022-10-28T12:06:31;101646.22;;;24.73
24714;BMP280;12820;51.580;5.010;2022-10-28T12:11:24;101663.59;;;24.83
24714;BMP280;12820;51.580;5.010;2022-10-28T12:16:38;101651.66;;;24.82
24714;BMP280;12820;51.580;5.010;2022-10-28T12:21:57;101659.63;;;24.64
24714;BMP280;12820;51.580;5.010;2022-10-28T12:27:30;101654.97;;;24.42
24714;BMP280;12820;51.580;5.010;2022-10-28T12:32:36;101667.00;;;24.26
24714;BMP280;12820;51.580;5.010;2022-10-28T12:37:50;101670.09;;;24.18
24714;BMP280;12820;51.580;5.010;2022-10-28T12:43:16;101677.63;;;24.05
24714;BMP280;12820;51.580;5.010;2022-10-28T12:48:28;101681.75;;;23.94
24714;BMP280;12820;51.580;5.010;2022-10-28T12:53:42;101684.66;;;23.87
24714;BMP280;12820;51.580;5.010;2022-10-28T12:59:02;101682.09;;;23.87
24714;BMP280;12820;51.580;5.010;2022-10-28T13:04:11;101688.75;;;23.91
24714;BMP280;12820;51.580;5.010;2022-10-28T13:09:40;101691.06;;;24.10
24714;BMP280;12820;51.580;5.010;2022-10-28T13:30:55;101710.97;;;25.63
24714;BMP280;12820;51.580;5.010;2022-10-28T13:36:28;101722.38;;;25.59
24714;BMP280;12820;51.580;5.010;2022-10-28T13:41:36;101719.41;;;25.78
24714;BMP280;12820;51.580;5.010;2022-10-28T13:52:20;101729.22;;;26.76
24714;BMP280;12820;51.580;5.010;2022-10-28T13:57:29;101718.19;;;26.74
24714;BMP280;12820;51.580;5.010;2022-10-28T14:02:41;101717.78;;;26.68
24714;BMP280;12820;51.580;5.010;2022-10-28T14:07:51;101718.06;;;26.64
24714;BMP280;12820;51.580;5.010;2022-10-28T14:12:58;101700.47;;;26.44
24714;BMP280;12820;51.580;5.010;2022-10-28T14:18:19;101715.19;;;26.56
24714;BMP280;12820;51.580;5.010;2022-10-28T14:28:49;101723.88;;;26.79
24714;BMP280;12820;51.580;5.010;2022-10-28T14:39:27;101738.81;;;27.12
24714;BMP280;12820;51.580;5.010;2022-10-28T14:45:06;101740.97;;;26.68
24714;BMP280;12820;51.580;5.010;2022-10-28T14:50:14;101732.13;;;26.20
24714;BMP280;12820;51.580;5.010;2022-10-28T14:55:24;101740.59;;;25.83
24714;BMP280;12820;51.580;5.010;2022-10-28T15:00:26;101746.13;;;25.50
24714;BMP280;12820;51.580;5.010;2022-10-28T15:05:30;101743.69;;;25.20
24714;BMP280;12820;51.580;5.010;2022-10-28T15:10:33;101759.06;;;24.93
24714;BMP280;12820;51.580;5.010;2022-10-28T15:15:35;101759.00;;;24.65
24714;BMP280;12820;51.580;5.010;2022-10-28T15:20:37;101757.91;;;24.39
24714;BMP280;12820;51.580;5.010;2022-10-28T15:25:39;101761.75;;;24.17
24714;BMP280;12820;51.580;5.010;2022-10-28T15:30:42;101771.53;;;23.96
24714;BMP280;12820;51.580;5.010;2022-10-28T15:35:47;101768.00;;;23.82
24714;BMP280;12820;51.580;5.010;2022-10-28T15:40:50;101760.19;;;23.68
24714;BMP280;12820;51.580;5.010;2022-10-28T15:45:53;101773.84;;;23.53
24714;BMP280;12820;51.580;5.010;2022-10-28T15:51:11;101802.00;;;23.38
24714;BMP280;12820;51.580;5.010;2022-10-28T16:06:29;101816.28;;;22.94
24714;BMP280;12820;51.580;5.010;2022-10-28T16:11:33;101822.19;;;22.78
24714;BMP280;12820;51.580;5.010;2022-10-28T16:16:37;101821.41;;;22.60
24714;BMP280;12820;51.580;5.010;2022-10-28T16:21:39;101816.34;;;22.40
24714;BMP280;12820;51.580;5.010;2022-10-28T16:26:41;101835.97;;;22.23
24714;BMP280;12820;51.580;5.010;2022-10-28T16:31:45;101850.50;;;22.05
24714;BMP280;12820;51.580;5.010;2022-10-28T16:36:49;101863.22;;;21.88
24714;BMP280;12820;51.580;5.010;2022-10-28T16:41:53;101864.72;;;21.72
24714;BMP280;12820;51.580;5.010;2022-10-28T16:46:57;101863.59;;;21.60
24714;BMP280;12820;51.580;5.010;2022-10-28T16:51:59;101863.22;;;21.49
24714;BMP280;12820;51.580;5.010;2022-10-28T16:57:03;101877.28;;;21.39
24714;BMP280;12820;51.580;5.010;2022-10-28T17:02:13;101882.72;;;21.32
24714;BMP280;12820;51.580;5.010;2022-10-28T17:07:16;101876.25;;;21.24
24714;BMP280;12820;51.580;5.010;2022-10-28T17:12:21;101892.00;;;21.15
24714;BMP280;12820;51.580;5.010;2022-10-28T17:17:23;101891.50;;;21.06
24714;BMP280;12820;51.580;5.010;2022-10-28T17:22:26;101892.78;;;20.95
24714;BMP280;12820;51.580;5.010;2022-10-28T17:27:28;101892.38;;;20.84
24714;BMP280;12820;51.580;5.010;2022-10-28T17:32:30;101908.06;;;20.75
24714;BMP280;12820;51.580;5.010;2022-10-28T17:37:32;101926.41;;;20.64
24714;BMP280;12820;51.580;5.010;2022-10-28T17:42:34;101926.88;;;20.52
24714;BMP280;12820;51.580;5.010;2022-10-28T17:47:36;101938.38;;;20.41
24714;BMP280;12820;51.580;5.010;2022-10-28T17:52:38;101945.50;;;20.31
24714;BMP280;12820;51.580;5.010;2022-10-28T17:57:40;101955.25;;;20.21
24714;BMP280;12820;51.580;5.010;2022-10-28T18:02:45;101953.94;;;20.11
24714;BMP280;12820;51.580;5.010;2022-10-28T18:07:47;101947.47;;;20.01
24714;BMP280;12820;51.580;5.010;2022-10-28T18:12:50;101960.53;;;19.92
24714;BMP280;12820;51.580;5.010;2022-10-28T18:17:53;101972.72;;;19.85
24714;BMP280;12820;51.580;5.010;2022-10-28T18:22:55;101972.16;;;19.77
24714;BMP280;12820;51.580;5.010;2022-10-28T18:27:58;101965.63;;;19.69
24714;BMP280;12820;51.580;5.010;2022-10-28T18:33:00;101990.56;;;19.61
24714;BMP280;12820;51.580;5.010;2022-10-28T18:38:02;102002.75;;;19.53
24714;BMP280;12820;51.580;5.010;2022-10-28T18:43:04;101996.13;;;19.46
24714;BMP280;12820;51.580;5.010;2022-10-28T18:48:06;101992.16;;;19.38
24714;BMP280;12820;51.580;5.010;2022-10-28T18:53:08;101986.50;;;19.29
24714;BMP280;12820;51.580;5.010;2022-10-28T18:58:10;102022.41;;;19.21
24714;BMP280;12820;51.580;5.010;2022-10-28T19:03:20;102018.44;;;19.13
24714;BMP280;12820;51.580;5.010;2022-10-28T19:08:23;102021.16;;;19.07
24714;BMP280;12820;51.580;5.010;2022-10-28T19:13:31;102010.34;;;19.01
24714;BMP280;12820;51.580;5.010;2022-10-28T19:18:33;102018.06;;;18.98
24714;BMP280;12820;51.580;5.010;2022-10-28T19:23:39;102019.88;;;18.95
24714;BMP280;12820;51.580;5.010;2022-10-28T19:28:44;102019.16;;;18.90
24714;BMP280;12820;51.580;5.010;2022-10-28T19:33:48;102015.03;;;18.86
24714;BMP280;12820;51.580;5.010;2022-10-28T19:38:51;102025.41;;;18.80
24714;BMP280;12820;51.580;5.010;2022-10-28T19:43:59;102039.06;;;18.78
24714;BMP280;12820;51.580;5.010;2022-10-28T19:49:03;102055.28;;;18.74
24714;BMP280;12820;51.580;5.010;2022-10-28T19:54:09;102047.66;;;18.74
24714;BMP280;12820;51.580;5.010;2022-10-28T19:59:12;102055.28;;;18.74
24714;BMP280;12820;51.580;5.010;2022-10-28T20:04:14;102063.84;;;18.73
24714;BMP280;12820;51.580;5.010;2022-10-28T20:09:18;102065.47;;;18.74
24714;BMP280;12820;51.580;5.010;2022-10-28T20:14:20;102074.81;;;18.75
24714;BMP280;12820;51.580;5.010;2022-10-28T20:19:22;102080.72;;;18.75
24714;BMP280;12820;51.580;5.010;2022-10-28T20:24:24;102083.25;;;18.77
24714;BMP280;12820;51.580;5.010;2022-10-28T20:29:27;102091.72;;;18.77
24714;BMP280;12820;51.580;5.010;2022-10-28T20:34:29;102090.91;;;18.77
24714;BMP280;12820;51.580;5.010;2022-10-28T20:39:31;102100.34;;;18.73
24714;BMP280;12820;51.580;5.010;2022-10-28T20:44:33;102108.03;;;18.70
24714;BMP280;12820;51.580;5.010;2022-10-28T20:49:35;102102.16;;;18.67
24714;BMP280;12820;51.580;5.010;2022-10-28T20:54:37;102099.69;;;18.64
24714;BMP280;12820;51.580;5.010;2022-10-28T20:59:39;102104.88;;;18.61
24714;BMP280;12820;51.580;5.010;2022-10-28T21:04:41;102110.94;;;18.57
24714;BMP280;12820;51.580;5.010;2022-10-28T21:09:43;102117.81;;;18.54
24714;BMP280;12820;51.580;5.010;2022-10-28T21:14:45;102108.63;;;18.49
24714;BMP280;12820;51.580;5.010;2022-10-28T21:19:47;102106.25;;;18.41
24714;BMP280;12820;51.580;5.010;2022-10-28T21:24:49;102100.50;;;18.35
24714;BMP280;12820;51.580;5.010;2022-10-28T21:29:51;102099.00;;;18.28
24714;BMP280;12820;51.580;5.010;2022-10-28T21:34:53;102089.91;;;18.18
24714;BMP280;12820;51.580;5.010;2022-10-28T21:39:56;102095.22;;;18.11
24714;BMP280;12820;51.580;5.010;2022-10-28T21:45:02;102101.34;;;18.03
24714;BMP280;12820;51.580;5.010;2022-10-28T21:50:04;102104.88;;;17.97
24714;BMP280;12820;51.580;5.010;2022-10-28T21:55:06;102110.06;;;17.93
24714;BMP280;12820;51.580;5.010;2022-10-28T22:00:21;102111.06;;;17.88
24714;BMP280;12820;51.580;5.010;2022-10-28T22:05:23;102112.03;;;17.82
24714;BMP280;12820;51.580;5.010;2022-10-28T22:10:25;102113.84;;;17.76
24714;BMP280;12820;51.580;5.010;2022-10-28T22:15:27;102125.81;;;17.73
24714;BMP280;12820;51.580;5.010;2022-10-28T22:20:29;102130.88;;;17.73
24714;BMP280;12820;51.580;5.010;2022-10-28T22:25:32;102131.72;;;17.73
24714;BMP280;12820;51.580;5.010;2022-10-28T22:30:34;102139.31;;;17.75
24714;BMP280;12820;51.580;5.010;2022-10-28T22:35:36;102143.53;;;17.76
24714;BMP280;12820;51.580;5.010;2022-10-28T22:40:38;102156.19;;;17.78
24714;BMP280;12820;51.580;5.010;2022-10-28T22:45:40;102140.03;;;17.79
24714;BMP280;12820;51.580;5.010;2022-10-28T22:50:42;102123.91;;;17.80
24714;BMP280;12820;51.580;5.010;2022-10-28T22:55:45;102119.75;;;17.78
24714;BMP280;12820;51.580;5.010;2022-10-28T23:00:47;102118.09;;;17.76
24714;BMP280;12820;51.580;5.010;2022-10-28T23:05:50;102137.66;;;17.74
24714;BMP280;12820;51.580;5.010;2022-10-28T23:10:52;102147.88;;;17.71
24714;BMP280;12820;51.580;5.010;2022-10-28T23:15:54;102137.78;;;17.68
24714;BMP280;12820;51.580;5.010;2022-10-28T23:20:56;102144.59;;;17.66
24714;BMP280;12820;51.580;5.010;2022-10-28T23:25:58;102151.50;;;17.61
24714;BMP280;12820;51.580;5.010;2022-10-28T23:31:01;102146.47;;;17.58
24714;BMP280;12820;51.580;5.010;2022-10-28T23:36:03;102141.50;;;17.54
24714;BMP280;12820;51.580;5.010;2022-10-28T23:41:08;102136.53;;;17.49
24714;BMP280;12820;51.580;5.010;2022-10-28T23:46:11;102141.72;;;17.43
24714;BMP280;12820;51.580;5.010;2022-10-28T23:51:13;102128.25;;;17.40
24714;BMP280;12820;51.580;5.010;2022-10-28T23:56:15;102128.34;;;17.36
